Time;durP1;ratioP1;P1;durP2;ratioP2;P2;SDS_P1;SDS_P2;PMS_P1;PMS_P2;Temp;Humidity;BMP_temperature;BMP_pressure;BME280_temperature;BME280_humidity;BME280_pressure;Samples;Min_cycle;Max_cycle;Signal;HPM_P1;HPM_P2
2022/06/05 00:02:01;;;;;;;3.80;3.00;;;21.30;94.40;;;21.74;63.37;101106.47;5206577;28;20049;-69
2022/06/05 00:04:42;;;;;;;3.30;2.95;;;21.20;94.80;;;21.67;64.15;101102.09;5207228;28;20049;-70
2022/06/05 00:07:22;;;;;;;2.70;2.50;;;21.20;95.40;;;21.61;64.87;101104.78;5207202;28;20053;-68
2022/06/05 00:10:05;;;;;;;3.17;2.88;;;21.10;95.60;;;21.53;65.44;101099.50;5206966;28;20056;-69
2022/06/05 00:12:45;;;;;;;3.55;3.00;;;21.10;95.90;;;21.47;65.71;101094.25;5206640;28;20051;-69
2022/06/05 00:15:17;;;;;;;3.78;3.28;;;21.00;96.20;;;21.42;66.07;101103.97;5206593;28;20057;-69
2022/06/05 00:17:49;;;;;;;3.67;3.10;;;20.90;96.50;;;21.36;66.51;101107.53;5206974;28;20132;-69
2022/06/05 00:20:22;;;;;;;3.70;2.92;;;20.90;96.80;;;21.30;66.60;101110.22;5206773;28;20504;-68
2022/06/05 00:22:54;;;;;;;4.35;3.05;;;20.80;97.00;;;21.26;66.63;101105.81;5206879;28;20149;-70
2022/06/05 00:25:39;;;;;;;3.97;3.42;;;20.80;97.00;;;21.20;66.64;101097.88;5206773;28;20045;-67
2022/06/05 00:28:22;;;;;;;4.30;3.42;;;20.70;97.20;;;21.17;66.73;101092.56;5206816;28;20076;-68
2022/06/05 00:31:03;;;;;;;4.25;3.40;;;20.70;97.30;;;21.12;67.26;101094.34;5206667;28;20405;-68
2022/06/05 00:33:40;;;;;;;4.53;3.40;;;20.60;97.60;;;21.08;67.61;101084.66;5206762;28;20148;-68
2022/06/05 00:36:31;;;;;;;4.32;3.13;;;20.60;97.90;;;21.02;67.95;101096.16;5206363;28;20103;-69
2022/06/05 00:39:11;;;;;;;4.00;3.40;;;20.50;98.20;;;20.96;68.44;101093.53;5206422;28;20478;-69
2022/06/05 00:41:55;;;;;;;3.65;3.30;;;20.50;98.50;;;20.91;68.93;101095.31;5206123;28;20045;-68
2022/06/05 00:44:34;;;;;;;4.10;3.22;;;20.40;98.90;;;20.88;69.60;101100.63;5206035;28;20056;-68
2022/06/05 00:47:09;;;;;;;4.45;3.30;;;20.40;99.30;;;20.86;70.01;101099.72;5206186;28;20057;-68
2022/06/05 00:49:45;;;;;;;3.78;3.03;;;20.30;99.70;;;20.85;70.02;101096.19;5206201;28;20512;-69
2022/06/05 00:52:19;;;;;;;3.45;2.92;;;20.30;99.90;;;20.82;69.93;101087.38;5205906;28;20136;-69
2022/06/05 00:54:51;;;;;;;4.68;3.25;;;20.30;99.90;;;20.76;69.71;101064.44;5206053;28;20049;-68
2022/06/05 00:57:30;;;;;;;4.38;3.28;;;20.30;99.90;;;20.72;70.01;101061.78;5206132;28;20187;-69
2022/06/05 01:00:10;;;;;;;4.15;3.70;;;20.30;99.90;;;20.68;70.14;101054.75;5205883;28;20096;-68
2022/06/05 01:02:46;;;;;;;5.28;3.75;;;20.20;99.90;;;20.65;69.87;101055.63;5205947;28;20045;-68
2022/06/05 01:05:21;;;;;;;4.78;3.25;;;20.20;99.90;;;20.65;69.66;101062.69;5206069;28;20056;-67
2022/06/05 01:07:54;;;;;;;5.38;4.05;;;20.20;99.90;;;20.66;68.73;101052.09;5206132;28;20107;-67
2022/06/05 01:10:38;;;;;;;4.68;3.85;;;20.20;99.80;;;20.68;68.28;101054.75;5205940;28;20111;-68
2022/06/05 01:13:27;;;;;;;4.78;3.72;;;20.20;99.50;;;20.68;67.58;101049.47;5206165;28;20050;-68
2022/06/05 01:16:11;;;;;;;5.25;3.90;;;20.20;99.20;;;20.69;67.43;101048.56;5206078;28;20129;-68
2022/06/05 01:18:51;;;;;;;3.97;3.50;;;20.20;99.10;;;20.69;67.22;101040.63;5206097;28;20050;-70
2022/06/05 01:22:10;;;;;;;6.20;3.80;;;20.20;98.90;;;20.68;67.02;101047.69;5206075;28;20132;-68
2022/06/05 01:25:04;;;;;;;3.92;3.40;;;20.20;98.90;;;20.68;66.89;101039.75;5205839;28;20552;-67
2022/06/05 01:27:41;;;;;;;4.10;3.45;;;20.20;98.80;;;20.69;67.23;101030.03;5209980;28;20057;-68
2022/06/05 01:30:19;;;;;;;4.68;3.20;;;20.20;99.00;;;20.68;67.29;101023.84;5209582;28;20128;-69
2022/06/05 01:32:58;;;;;;;3.83;2.85;;;20.20;99.00;;;20.66;67.22;101024.72;5210191;28;20045;-69
2022/06/05 01:35:40;;;;;;;3.70;2.90;;;20.20;98.90;;;20.64;67.26;101019.44;5209752;28;20053;-65
2022/06/05 01:38:18;;;;;;;5.13;3.38;;;20.20;99.00;;;20.61;67.02;101016.81;5209855;28;20053;-68
2022/06/05 01:40:57;;;;;;;4.30;3.33;;;20.20;98.90;;;20.59;66.86;101014.16;5201351;28;20060;-67
2022/06/05 01:43:36;;;;;;;4.65;3.25;;;20.20;98.80;;;20.58;66.96;101007.09;5189391;28;20502;-68
2022/06/05 01:46:14;;;;;;;4.00;3.70;;;20.10;98.80;;;20.58;66.66;100995.63;5189379;28;20395;-67
2022/06/05 01:48:53;;;;;;;5.90;3.63;;;20.10;98.70;;;20.55;66.33;100985.06;5189014;28;20056;-68
2022/06/05 01:51:34;;;;;;;4.63;3.58;;;20.10;98.50;;;20.51;66.04;100980.63;5189254;28;20046;-68
2022/06/05 01:54:13;;;;;;;6.45;4.28;;;20.10;98.30;;;20.43;66.02;100963.88;5189180;28;20053;-68
2022/06/05 01:56:50;;;;;;;5.20;3.83;;;20.10;98.30;;;20.41;66.01;100970.91;5189164;28;20054;-68
2022/06/05 01:59:34;;;;;;;4.22;3.80;;;20.00;98.20;;;20.38;66.29;100960.34;5189044;28;20132;-70
2022/06/05 02:02:13;;;;;;;4.95;3.90;;;20.00;98.30;;;20.36;66.35;100951.53;5188961;28;20049;-70
2022/06/05 02:04:51;;;;;;;5.53;4.03;;;20.00;98.20;;;20.33;66.26;100942.69;5188951;28;20069;-67
2022/06/05 02:07:29;;;;;;;4.68;3.72;;;20.00;98.20;;;20.32;66.36;100935.66;5189175;28;20081;-68
2022/06/05 02:10:07;;;;;;;4.32;3.58;;;20.00;98.20;;;20.32;66.21;100916.25;5188561;28;20133;-68
2022/06/05 02:12:39;;;;;;;4.80;4.00;;;20.00;98.20;;;20.31;66.07;100907.41;5189018;28;20409;-69
2022/06/05 02:15:13;;;;;;;5.15;4.20;;;20.00;98.10;;;20.30;66.03;100904.78;5188643;28;20081;-68
2022/06/05 02:17:45;;;;;;;4.72;3.78;;;19.90;98.10;;;20.27;66.13;100903.00;5188997;28;20129;-69
2022/06/05 02:20:18;;;;;;;5.13;3.92;;;20.00;98.20;;;20.28;66.25;100894.22;5188408;28;20054;-68
2022/06/05 02:22:52;;;;;;;4.97;3.67;;;20.00;98.20;;;20.28;66.09;100894.22;5188467;28;20049;-68
2022/06/05 02:25:28;;;;;;;4.40;3.50;;;19.90;98.10;;;20.27;66.12;100879.19;5201438;28;20041;-69
2022/06/05 02:28:01;;;;;;;4.53;3.50;;;19.90;98.20;;;20.28;66.17;100862.44;5208775;28;20107;-68
2022/06/05 02:30:45;;;;;;;4.78;3.35;;;20.00;98.20;;;20.29;66.07;100864.19;5208850;28;20129;-68
2022/06/05 02:33:24;;;;;;;4.40;3.22;;;19.90;98.40;;;20.26;65.83;100856.25;5208910;28;20133;-68
2022/06/05 02:36:07;;;;;;;3.75;3.20;;;19.90;98.10;;;20.27;66.00;100857.13;5208952;28;20569;-67
2022/06/05 02:38:53;;;;;;;4.93;4.28;;;19.90;98.10;;;20.23;65.98;100840.41;5208516;28;20405;-68
2022/06/05 02:41:33;;;;;;;5.63;3.67;;;19.90;98.10;;;20.22;65.92;100833.34;5208515;28;20132;-69
2022/06/05 02:44:29;;;;;;;5.03;3.50;;;19.90;98.10;;;20.22;66.11;100838.66;5208447;28;20050;-68
2022/06/05 02:47:18;;;;;;;5.20;3.78;;;19.90;98.20;;;20.22;66.04;100821.88;5208357;28;20132;-68
2022/06/05 02:49:59;;;;;;;4.85;3.38;;;19.90;98.20;;;20.22;66.15;100812.19;5208273;28;20049;-68
2022/06/05 02:52:33;;;;;;;5.72;4.10;;;19.80;98.20;;;20.20;66.02;100808.63;5208296;28;20081;-69
2022/06/05 02:55:11;;;;;;;4.70;3.70;;;19.80;98.20;;;20.19;66.12;100798.06;5208325;28;20055;-68
2022/06/05 02:57:43;;;;;;;4.88;3.40;;;19.80;98.20;;;20.16;66.11;100795.44;5208426;28;20049;-68
2022/06/05 03:00:18;;;;;;;4.40;3.72;;;19.80;98.20;;;20.10;66.32;100780.47;5207944;28;20041;-69
2022/06/05 03:05:41;;;;;;;4.82;3.97;;;19.80;98.20;;;20.03;66.31;100776.97;5208156;28;20053;-67
2022/06/05 03:08:16;;;;;;;5.00;3.90;;;19.80;98.20;;;20.01;66.54;100785.78;5207848;28;20137;-69
2022/06/05 03:10:49;;;;;;;4.25;3.30;;;19.70;98.20;;;20.03;66.40;100794.63;5208139;28;20488;-68
2022/06/05 03:13:22;;;;;;;6.30;4.25;;;19.70;98.20;;;20.01;66.33;100791.06;5207720;28;20084;-67
2022/06/05 03:15:54;;;;;;;5.68;3.70;;;19.70;98.20;;;20.06;66.36;100797.22;5208175;28;20133;-67
2022/06/05 03:18:28;;;;;;;5.40;4.00;;;19.70;98.20;;;20.05;66.20;100795.47;5207917;28;20053;-67
2022/06/05 03:21:00;;;;;;;5.35;4.47;;;19.70;98.10;;;20.09;66.01;100794.59;5207886;28;20405;-68
2022/06/05 03:23:33;;;;;;;4.40;3.35;;;19.80;98.10;;;20.14;65.97;100794.56;5207691;28;20418;-69
2022/06/05 03:26:09;;;;;;;5.72;4.28;;;19.80;98.10;;;20.08;65.75;100798.09;5207997;28;20132;-69
2022/06/05 03:28:41;;;;;;;4.13;3.50;;;19.70;98.00;;;20.11;65.76;100799.88;5207839;28;20494;-67
2022/06/05 03:31:13;;;;;;;3.95;3.22;;;19.70;98.00;;;20.14;65.68;100797.19;5207850;28;20046;-67
2022/06/05 03:33:47;;;;;;;5.25;3.65;;;19.80;98.00;;;20.15;65.49;100791.00;5207649;28;20494;-70
2022/06/05 03:36:19;;;;;;;4.13;3.40;;;19.80;97.90;;;20.16;65.60;100795.44;5207366;28;20052;-67
2022/06/05 03:38:52;;;;;;;4.18;3.13;;;19.80;97.90;;;20.16;65.64;100791.03;5207165;28;20088;-68
2022/06/05 03:41:24;;;;;;;4.13;3.55;;;19.80;97.90;;;20.14;65.54;100798.06;5207340;28;20041;-69
2022/06/05 03:43:57;;;;;;;4.53;3.33;;;19.80;97.90;;;20.13;65.50;100796.31;5207053;28;20046;-68
2022/06/05 03:46:29;;;;;;;4.30;3.20;;;19.80;97.80;;;20.14;65.45;100786.63;5207245;28;20140;-68
2022/06/05 03:49:03;;;;;;;4.30;3.25;;;19.80;97.80;;;20.17;65.36;100792.78;5206395;28;20055;-69
2022/06/05 03:51:35;;;;;;;3.50;3.20;;;19.80;97.80;;;20.18;65.39;100778.66;5207077;28;20056;-68
2022/06/05 03:54:07;;;;;;;4.47;3.10;;;19.80;97.90;;;20.20;65.40;100782.16;5207099;28;20085;-69
2022/06/05 03:56:40;;;;;;;4.53;3.50;;;19.80;97.80;;;20.22;65.30;100780.41;5207174;28;20114;-69
2022/06/05 03:59:12;;;;;;;4.70;3.10;;;19.80;97.80;;;20.22;65.22;100785.72;5206788;28;20129;-67
2022/06/05 04:01:44;;;;;;;3.72;2.92;;;19.80;97.80;;;20.23;65.30;100782.16;5207188;28;20060;-68
2022/06/05 04:04:18;;;;;;;3.88;3.28;;;19.80;97.90;;;20.23;65.36;100787.47;5207151;28;20103;-68
2022/06/05 04:06:50;;;;;;;3.40;2.80;;;19.80;97.90;;;20.24;65.57;100797.16;5207150;28;20084;-70
2022/06/05 04:09:22;;;;;;;3.88;3.22;;;19.80;97.90;;;20.26;65.54;100792.72;5206866;28;20049;-68
2022/06/05 04:11:54;;;;;;;3.63;2.90;;;19.80;97.90;;;20.28;65.43;100796.28;5207027;28;20482;-68
2022/06/05 04:14:26;;;;;;;3.75;3.08;;;19.80;97.90;;;20.27;65.38;100805.06;5206616;28;20049;-69
2022/06/05 04:16:58;;;;;;;3.97;3.58;;;19.90;97.90;;;20.28;65.28;100809.50;5206910;28;20415;-70
2022/06/05 04:19:32;;;;;;;3.83;3.10;;;19.90;97.90;;;20.29;65.41;100824.50;5206499;28;20096;-68
2022/06/05 04:22:04;;;;;;;3.28;2.85;;;19.90;97.90;;;20.32;65.23;100827.13;5206793;28;20397;-69
2022/06/05 04:24:37;;;;;;;2.97;2.50;;;19.90;97.80;;;20.34;65.71;100835.03;5359052;22;20128;-74
2022/06/05 04:27:09;;;;;;;2.88;2.53;;;19.90;98.00;;;20.35;65.88;100828.00;5221931;28;20052;-73
2022/06/05 04:29:41;;;;;;;3.53;3.22;;;19.90;98.10;;;20.33;65.80;100834.16;5205778;28;20064;-73
2022/06/05 04:32:13;;;;;;;7.03;4.03;;;19.90;98.10;;;20.32;65.72;100843.00;5206119;28;20454;-74
2022/06/05 04:34:47;;;;;;;4.22;3.40;;;19.90;98.00;;;20.34;65.61;100845.63;5205899;28;20050;-74
2022/06/05 04:37:19;;;;;;;4.95;3.13;;;19.90;98.00;;;20.35;65.63;100859.78;5205904;28;20049;-74
2022/06/05 04:39:51;;;;;;;3.63;2.70;;;19.90;98.00;;;20.35;65.74;100860.66;5205587;28;20504;-74
2022/06/05 04:42:23;;;;;;;4.28;3.40;;;19.90;98.10;;;20.36;65.77;100870.34;5205997;28;20394;-74
2022/06/05 04:44:55;;;;;;;4.88;3.20;;;19.90;98.10;;;20.36;66.13;100882.72;5194031;28;20136;-73
2022/06/05 04:47:27;;;;;;;3.78;3.38;;;19.90;98.30;;;20.37;66.41;100893.28;5198610;28;20140;-74
2022/06/05 04:50:01;;;;;;;4.15;3.53;;;19.90;98.40;;;20.38;66.52;100896.81;5205574;28;20053;-74
2022/06/05 04:52:33;;;;;;;3.83;3.35;;;19.90;98.40;;;20.39;66.58;100902.09;5205699;28;20054;-74
2022/06/05 04:55:07;;;;;;;4.45;3.40;;;19.90;98.50;;;20.41;66.42;100891.50;5205936;28;20084;-74
2022/06/05 04:57:39;;;;;;;4.32;3.33;;;20.00;98.50;;;20.41;66.49;100891.50;5205921;28;20057;-73
2022/06/05 05:00:13;;;;;;;4.40;3.65;;;19.90;98.50;;;20.38;66.30;100891.50;5204648;28;20049;-74
2022/06/05 05:02:45;;;;;;;4.57;3.50;;;20.00;98.40;;;20.37;66.18;100895.94;5205304;28;20045;-74
2022/06/05 05:05:19;;;;;;;4.45;3.63;;;19.90;98.30;;;20.37;66.03;100895.06;5205414;28;20049;-73
2022/06/05 05:07:51;;;;;;;4.75;3.50;;;19.90;98.20;;;20.35;66.16;100888.91;5205662;28;20079;-73
2022/06/05 05:10:23;;;;;;;6.35;3.97;;;19.90;98.30;;;20.30;66.35;100895.06;5205308;28;20053;-73
2022/06/05 05:12:56;;;;;;;5.70;3.92;;;19.90;98.30;;;20.28;66.49;100886.28;5205436;28;20052;-73
2022/06/05 05:15:28;;;;;;;4.63;3.80;;;19.90;98.40;;;20.25;66.77;100880.97;5205270;28;20045;-73
2022/06/05 05:18:00;;;;;;;5.50;4.22;;;19.90;98.50;;;20.20;67.06;100876.56;5205758;28;20486;-74
2022/06/05 05:20:33;;;;;;;6.93;4.53;;;19.80;98.50;;;20.17;67.37;100874.81;5205381;28;20052;-73
2022/06/05 05:23:07;;;;;;;5.78;3.70;;;19.90;98.70;;;20.21;67.38;100868.66;5205529;28;20049;-74
2022/06/05 05:25:40;;;;;;;5.43;3.90;;;19.90;98.70;;;20.25;67.29;100874.78;5205149;28;20158;-73
2022/06/05 05:28:12;;;;;;;6.53;4.03;;;19.90;98.70;;;20.21;67.16;100868.66;5205381;28;20239;-73
2022/06/05 05:30:45;;;;;;;5.53;4.10;;;19.90;99.00;;;20.25;67.08;100874.78;5205373;28;20056;-73
2022/06/05 05:33:17;;;;;;;6.93;4.03;;;19.90;98.70;;;20.22;67.26;100865.13;5205114;28;20045;-73
2022/06/05 05:35:50;;;;;;;5.00;4.03;;;19.90;98.70;;;20.16;67.57;100866.91;5205393;28;20500;-73
2022/06/05 05:38:22;;;;;;;8.07;4.65;;;19.90;98.80;;;20.14;67.70;100861.59;5204714;28;20054;-73
2022/06/05 05:43:44;;;;;;;4.78;3.75;;;19.80;98.90;;;20.14;68.04;100851.00;5205065;28;20528;-74
2022/06/05 05:46:17;;;;;;;4.60;3.83;;;19.80;99.00;;;20.22;68.32;100859.81;5205159;28;20055;-73
2022/06/05 05:48:49;;;;;;;5.10;4.28;;;19.90;99.20;;;20.24;68.59;100836.88;5204934;28;20072;-74
2022/06/05 05:51:23;;;;;;;5.10;3.95;;;19.90;99.60;;;20.25;68.70;100835.97;5205148;28;20045;-73
2022/06/05 05:53:55;;;;;;;5.90;4.22;;;19.90;99.30;;;20.27;68.61;100828.91;5205182;28;20041;-73
2022/06/05 05:56:27;;;;;;;4.97;3.92;;;19.90;99.30;;;20.28;68.51;100828.03;5205134;28;20049;-73
2022/06/05 05:59:00;;;;;;;5.55;4.80;;;19.90;99.40;;;20.32;68.74;100823.59;5204650;28;20417;-70
2022/06/05 06:01:33;;;;;;;5.15;4.10;;;19.90;99.40;;;20.32;68.81;100827.13;5205366;28;20135;-70
2022/06/05 06:04:05;;;;;;;5.00;4.15;;;20.00;99.50;;;20.40;68.79;100820.91;5205074;28;20504;-70
2022/06/05 06:06:43;;;;;;;5.20;4.05;;;20.00;99.50;;;20.42;68.88;100822.66;5204678;28;20049;-68
2022/06/05 06:09:15;;;;;;;6.28;4.35;;;20.10;99.50;;;20.45;68.87;100811.22;5204623;28;20513;-68
2022/06/05 06:11:47;;;;;;;7.60;4.40;;;20.10;99.50;;;20.46;69.13;100802.38;5205266;28;20055;-68
2022/06/05 06:14:19;;;;;;;6.18;4.30;;;20.10;99.60;;;20.42;69.43;100792.66;5208942;28;20056;-69
2022/06/05 06:16:51;;;;;;;6.40;4.65;;;20.10;99.70;;;20.44;69.75;100791.75;5208657;28;20049;-68
2022/06/05 06:19:23;;;;;;;5.72;4.18;;;20.10;99.90;;;20.46;69.84;100790.00;5208775;28;20153;-68
2022/06/05 06:21:57;;;;;;;6.35;3.70;;;20.10;99.90;;;20.54;69.83;100782.03;5208843;28;20179;-68
2022/06/05 06:24:29;;;;;;;5.18;4.40;;;20.20;99.90;;;20.60;69.79;100787.28;5208365;28;20049;-68
2022/06/05 06:27:01;;;;;;;5.22;4.22;;;20.20;99.90;;;20.59;69.93;100773.16;5208723;28;20049;-68
2022/06/05 06:29:35;;;;;;;7.05;4.85;;;20.20;99.90;;;20.61;70.24;100773.16;5208238;28;20482;-68
2022/06/05 06:32:08;;;;;;;5.68;4.57;;;20.20;99.90;;;20.62;70.23;100756.38;5208498;28;20049;-70
2022/06/05 06:34:40;;;;;;;5.47;4.43;;;20.30;99.90;;;20.63;70.19;100759.91;5208560;28;20041;-69
2022/06/05 06:37:13;;;;;;;6.03;4.60;;;20.20;99.90;;;20.64;70.38;100751.06;5208446;28;20053;-69
2022/06/05 06:39:45;;;;;;;6.00;4.40;;;20.30;99.90;;;20.61;70.83;100751.97;5207945;28;20132;-69
2022/06/05 06:42:17;;;;;;;6.32;4.88;;;20.30;99.90;;;20.60;71.15;100742.25;5208455;28;20508;-69
2022/06/05 06:44:49;;;;;;;6.82;4.32;;;20.30;99.90;;;20.59;71.21;100741.38;5207960;28;20049;-67
2022/06/05 06:47:21;;;;;;;5.80;4.90;;;20.30;99.90;;;20.65;70.80;100735.16;5208527;28;20056;-69
2022/06/05 06:49:53;;;;;;;4.47;3.65;;;20.30;99.90;;;20.72;70.97;100734.22;5208177;28;20678;-69
2022/06/05 06:52:27;;;;;;;5.10;3.90;;;20.30;99.90;;;20.76;70.85;100733.31;5208326;28;20069;-69
2022/06/05 06:54:59;;;;;;;5.15;4.05;;;20.30;99.90;;;20.79;70.95;100725.34;5207930;28;20054;-69
2022/06/05 06:57:31;;;;;;;5.75;4.60;;;20.40;99.90;;;20.80;70.96;100711.22;5207970;28;20490;-53
2022/06/05 07:00:05;;;;;;;4.65;4.10;;;20.40;99.90;;;20.84;69.60;100702.34;5207636;28;20055;-52
2022/06/05 07:02:37;;;;;;;5.43;3.78;;;20.50;99.90;;;20.98;68.67;100703.97;5207885;28;20052;-54
2022/06/05 07:05:10;;;;;;;6.30;4.35;;;20.60;99.80;;;20.99;68.69;100696.00;5207785;28;20056;-54
2022/06/05 07:07:44;;;;;;;6.40;4.57;;;20.60;99.70;;;21.04;68.51;100691.56;5207625;28;20046;-56
2022/06/05 07:10:16;;;;;;;8.07;5.43;;;20.70;99.60;;;21.11;68.27;100690.59;5199954;28;20388;-54
2022/06/05 07:12:48;;;;;;;7.40;5.05;;;20.70;99.40;;;21.19;67.92;100698.50;5202983;28;20049;-54
2022/06/05 07:15:20;;;;;;;6.10;4.72;;;20.80;99.30;;;21.25;67.88;100689.56;5207932;28;20049;-55
2022/06/05 07:17:52;;;;;;;5.80;4.40;;;20.90;99.20;;;21.29;67.58;100689.56;5207508;28;20297;-56
2022/06/05 07:20:24;;;;;;;5.75;4.22;;;21.00;99.20;;;21.39;67.72;100698.31;5207086;28;20494;-64
2022/06/05 07:22:58;;;;;;;5.38;4.05;;;21.00;99.20;;;21.46;67.89;100704.44;5206975;28;20053;-64
2022/06/05 07:25:30;;;;;;;5.45;4.10;;;21.00;99.20;;;21.54;68.24;100714.03;5206918;28;20140;-64
2022/06/05 07:28:06;;;;;;;4.85;4.35;;;21.10;99.50;;;21.61;68.10;100714.84;5207317;28;20049;-66
2022/06/05 07:30:38;;;;;;;5.53;4.20;;;21.20;99.50;;;21.71;67.47;100719.13;5207210;28;20060;-68
2022/06/05 07:33:10;;;;;;;5.53;4.28;;;21.20;99.20;;;21.82;67.31;100711.06;5207337;28;20049;-68
2022/06/05 07:35:42;;;;;;;5.07;4.10;;;21.30;99.50;;;21.96;67.00;100714.41;5207036;28;20052;-68
2022/06/05 07:38:16;;;;;;;6.22;4.60;;;21.40;99.10;;;22.07;66.60;100716.91;5207391;28;20143;-68
2022/06/05 07:40:48;;;;;;;4.85;4.30;;;21.50;98.90;;;22.25;66.42;100711.41;5206967;28;20052;-68
2022/06/05 07:43:21;;;;;;;5.47;4.13;;;21.60;98.90;;;22.45;65.77;100711.09;5207289;28;20056;-69
2022/06/05 07:45:53;;;;;;;7.65;4.60;;;21.80;99.10;;;22.59;64.98;100713.53;5207221;28;20107;-68
2022/06/05 07:48:25;;;;;;;6.18;4.60;;;21.90;98.40;;;22.56;63.53;100722.44;5206756;28;20049;-70
2022/06/05 07:56:47;;;;;;;4.72;4.15;;;22.10;97.50;;;22.54;64.52;100741.94;5195720;28;20046;-70
2022/06/05 07:59:19;;;;;;;5.28;4.45;;;22.00;97.70;;;22.50;65.02;100740.25;5194514;28;20045;-67
2022/06/05 08:01:51;;;;;;;7.85;4.65;;;22.00;97.90;;;22.43;65.82;100743.00;5197243;28;20478;-67
2022/06/05 08:04:23;;;;;;;4.47;4.05;;;22.00;98.20;;;22.36;65.69;100743.97;5186758;28;20461;-67
2022/06/05 08:06:57;;;;;;;5.70;4.63;;;21.90;98.10;;;22.36;66.31;100741.28;5186350;28;20059;-65
2022/06/05 08:09:32;;;;;;;4.53;3.90;;;21.90;98.40;;;22.35;66.36;100739.56;5196758;28;20052;-69
2022/06/05 08:12:05;;;;;;;4.88;4.30;;;21.90;98.50;;;22.30;66.94;100730.78;5207223;28;20049;-66
2022/06/05 08:14:39;;;;;;;5.07;4.30;;;21.90;98.60;;;22.29;67.36;100723.72;5206491;28;20061;-67
2022/06/05 08:17:14;;;;;;;6.22;5.20;;;21.90;98.80;;;22.29;67.52;100728.13;5206843;28;20049;-66
2022/06/05 08:19:47;;;;;;;5.22;4.18;;;21.80;98.90;;;22.34;67.57;100734.28;5194293;28;20050;-66
2022/06/05 08:22:22;;;;;;;4.90;4.38;;;21.90;99.00;;;22.37;67.38;100744.88;5185685;28;20510;-68
2022/06/05 08:24:56;;;;;;;6.07;4.72;;;21.90;99.00;;;22.33;66.65;100753.75;5185634;28;20042;-67
2022/06/05 08:27:29;;;;;;;6.25;5.05;;;21.90;98.60;;;22.21;67.16;100753.03;5185939;28;20056;-68
2022/06/05 08:30:01;;;;;;;5.85;4.68;;;21.80;98.70;;;22.10;68.04;100741.66;5191027;28;20072;-69
2022/06/05 08:32:33;;;;;;;7.88;4.20;;;21.70;99.10;;;22.04;68.69;100754.09;5179706;28;20045;-67
2022/06/05 08:35:07;;;;;;;6.15;4.35;;;21.70;99.40;;;22.01;69.47;100755.03;5193497;28;20056;-67
2022/06/05 08:43:39;;;;;;;7.18;5.32;;;21.50;99.90;;;21.73;72.81;100749.19;5183768;28;20042;-68
2022/06/05 08:46:17;;;;;;;6.47;5.32;;;21.40;99.90;;;21.69;73.29;100758.06;5187328;28;20414;-66
2022/06/05 08:48:54;;;;;;;6.70;5.47;;;21.40;99.90;;;21.66;74.06;100752.81;5192834;28;20057;-65
2022/06/05 08:51:46;;;;;;;8.13;4.90;;;21.30;99.90;;;21.55;73.83;100765.31;5190857;28;20049;-67
2022/06/05 08:54:22;;;;;;;6.38;5.38;;;21.30;99.90;;;21.45;76.43;100763.63;5202204;28;20042;-67
2022/06/05 08:57:03;;;;;;;9.20;5.95;;;21.20;99.90;;;21.36;76.60;100760.19;5202097;28;20071;-67
2022/06/05 08:59:41;;;;;;;;;;;21.10;99.90;;;21.28;78.76;100759.41;5206119;28;20500;-68
2022/06/05 09:02:23;;;;;;;6.40;5.50;;;21.10;99.90;;;21.20;79.92;100752.38;5185763;28;19921;-67
2022/06/05 09:05:02;;;;;;;7.13;5.40;;;21.00;99.90;;;21.18;81.67;100757.69;5166396;28;20048;-67
2022/06/05 09:07:43;;;;;;;6.32;5.30;;;21.00;99.90;;;21.16;82.31;100762.13;5196035;28;20046;-69
2022/06/05 09:10:28;;;;;;;8.70;5.50;;;21.00;99.90;;;21.20;83.05;100761.22;5185146;28;20054;-67
2022/06/05 09:13:08;;;;;;;7.03;5.68;;;21.00;99.90;;;21.23;83.87;100763.81;5194662;28;20049;-70
2022/06/05 09:15:47;;;;;;;7.63;5.65;;;21.00;99.90;;;21.13;84.13;100762.16;5205667;28;20054;-69
2022/06/05 09:18:22;;;;;;;7.75;5.88;;;21.00;99.90;;;21.13;84.97;100764.81;5205766;28;20053;-68
2022/06/05 09:20:57;;;;;;;6.75;5.60;;;20.90;99.90;;;21.12;85.06;100770.97;5206091;28;20478;-68
2022/06/05 09:23:36;;;;;;;8.10;5.50;;;20.90;99.90;;;21.08;85.38;100771.91;5205470;28;20048;-68
2022/06/05 09:26:13;;;;;;;7.80;5.90;;;20.90;99.90;;;21.05;85.34;100778.09;5205498;28;20050;-68
2022/06/05 09:29:07;;;;;;;7.40;5.60;;;20.80;99.90;;;20.96;86.03;100774.66;5205230;28;20052;-67
2022/06/05 09:32:07;;;;;;;7.88;6.03;;;20.80;99.90;;;20.88;87.50;100766.78;5205783;28;20056;-68
2022/06/05 09:34:45;;;;;;;9.73;6.35;;;20.70;99.90;;;20.72;88.26;100766.00;5205732;28;20550;-68
2022/06/05 09:37:24;;;;;;;8.48;6.40;;;20.60;99.90;;;20.62;89.22;100766.09;5182054;28;20050;-70
2022/06/05 09:40:03;;;;;;;7.80;5.80;;;20.50;99.90;;;20.62;89.69;100758.16;5165614;28;20137;-68
2022/06/05 09:43:04;;;;;;;10.23;7.18;;;20.50;99.90;;;20.67;89.73;100756.31;5201307;28;20406;-68
2022/06/05 09:45:55;;;;;;;8.18;5.90;;;20.50;99.90;;;20.72;89.86;100757.19;5184382;28;20050;-68
2022/06/05 09:48:37;;;;;;;7.60;6.13;;;20.50;99.90;;;20.74;89.05;100758.94;5167539;28;20054;-68
2022/06/05 09:51:12;;;;;;;7.72;5.93;;;20.50;99.90;;;20.73;90.26;100751.88;5168838;28;20080;-69
2022/06/05 09:53:50;;;;;;;8.95;7.20;;;20.50;99.90;;;20.76;90.70;100740.38;5168730;28;20472;-68
2022/06/05 09:58:24;;;;;;;9.80;6.93;;;20.50;99.90;;;20.76;91.30;100751.84;5168328;28;20054;-68
2022/06/05 09:59:30;;;;;;;;;;;20.60;99.90;;;20.65;91.78;100743.09;5178208;28;20045;-67
2022/06/05 10:02:07;;;;;;;7.97;5.78;;;20.50;99.90;;;20.70;92.52;100735.13;5209247;28;20404;-68
2022/06/05 10:04:41;;;;;;;7.70;5.88;;;20.50;99.90;;;20.72;92.84;100741.28;5208871;28;20046;-69
2022/06/05 10:07:21;;;;;;;7.03;5.50;;;20.50;99.90;;;20.74;92.84;100735.09;5208683;28;20057;-69
2022/06/05 10:09:54;;;;;;;7.18;5.95;;;20.50;99.90;;;20.76;93.02;100733.31;5209089;28;20490;-68
2022/06/05 10:12:36;;;;;;;7.70;6.22;;;20.50;99.90;;;20.77;92.95;100731.53;5209270;28;20119;-68
2022/06/05 10:15:24;;;;;;;7.65;5.85;;;20.50;99.90;;;20.71;92.33;100736.88;5208740;28;20132;-69
2022/06/05 10:18:01;;;;;;;7.80;6.32;;;20.50;99.90;;;20.71;92.82;100732.47;5209045;28;20583;-68
2022/06/05 10:20:47;;;;;;;8.18;5.90;;;20.50;99.90;;;20.78;93.01;100720.94;5208518;28;20060;-69
2022/06/05 10:23:41;;;;;;;8.15;7.15;;;20.50;99.90;;;20.85;93.12;100724.41;5203832;28;20387;-68
2022/06/05 10:26:37;;;;;;;8.48;6.40;;;20.60;99.90;;;20.92;93.01;100718.16;5200373;28;20474;-67
2022/06/05 10:32:02;;;;;;;;;;;20.60;99.90;;;20.65;92.30;100711.31;5154080;28;20055;-67
2022/06/05 10:34:44;;;;;;;8.98;6.85;;;20.50;99.90;;;20.55;93.77;100709.66;5159727;28;20374;-67
2022/06/05 10:37:27;;;;;;;9.35;6.72;;;20.40;99.90;;;20.49;94.78;100704.41;5167548;28;20069;-68
2022/06/05 10:40:17;;;;;;;9.32;6.90;;;20.30;99.90;;;20.48;95.13;100698.22;5178571;28;20046;-65
2022/06/05 10:43:02;;;;;;;10.75;8.05;;;20.30;99.90;;;20.47;96.21;100695.56;5187782;28;20049;-67
2022/06/05 10:45:49;;;;;;;10.32;7.40;;;20.30;99.90;;;20.42;96.16;100673.53;5187873;28;20053;-66
2022/06/05 10:48:48;;;;;;;9.50;7.10;;;20.30;99.90;;;20.54;96.93;100670.84;5187480;28;20053;-70
2022/06/05 10:51:32;;;;;;;8.18;6.43;;;20.30;99.90;;;20.76;96.78;100675.03;5188237;28;20072;-69
2022/06/05 10:54:23;;;;;;;8.18;6.43;;;20.40;99.90;;;21.01;95.51;100661.56;5188199;28;20045;-68
2022/06/05 10:57:04;;;;;;;8.25;6.13;;;20.60;99.90;;;21.37;95.60;100668.28;5187887;28;20054;-68
2022/06/05 10:59:50;;;;;;;8.05;6.50;;;20.80;99.90;;;21.70;94.68;100653.72;5187496;28;20060;-69
2022/06/05 11:02:43;;;;;;;9.25;6.13;;;21.10;99.90;;;22.14;94.44;100654.91;5169319;28;20414;-70
2022/06/05 11:05:52;;;;;;;8.77;6.30;;;21.40;99.90;;;22.53;92.21;100652.53;5167693;28;20046;-69
2022/06/05 11:08:45;;;;;;;8.15;6.25;;;21.80;99.90;;;22.70;89.28;100645.16;5136182;28;20487;-69
2022/06/05 11:14:21;;;;;;;8.00;6.25;;;22.10;99.90;;;22.51;85.10;100643.72;5167990;28;20061;-72
2022/06/05 11:16:58;;;;;;;8.18;6.47;;;22.00;99.90;;;22.38;84.95;100628.00;5167249;28;20463;-73